Time;durP1;ratioP1;P1;durP2;ratioP2;P2;SDS_P1;SDS_P2;PMS_P1;PMS_P2;Temp;Humidity;BMP_temperature;BMP_pressure;BME280_temperature;BME280_humidity;BME280_pressure;Samples;Min_cycle;Max_cycle;Signal;HPM_P1;HPM_P2
2022/01/31 00:02:20;;;;;;;7.72;3.78;;;;;;;19.65;48.83;100753.72;4963958;28;20105;-41
2022/01/31 00:04:45;;;;;;;5.32;3.70;;;;;;;19.64;48.96;100749.44;4957856;28;20042;-42
2022/01/31 00:07:11;;;;;;;5.85;3.38;;;;;;;19.66;48.77;100736.84;4963508;28;20038;-39
2022/01/31 00:09:42;;;;;;;5.70;3.42;;;;;;;19.62;48.53;100725.03;4961601;28;20022;-42
2022/01/31 00:12:12;;;;;;;6.88;3.00;;;;;;;19.59;48.58;100720.13;4966043;28;20082;-42
2022/01/31 00:14:47;;;;;;;5.30;2.88;;;;;;;19.57;48.50;100716.88;4962688;28;20216;-42
2022/01/31 00:17:14;;;;;;;5.65;2.88;;;;;;;19.53;48.39;100706.69;4965669;28;20130;-45
2022/01/31 00:19:40;;;;;;;4.70;3.20;;;;;;;19.52;48.10;100709.53;4963812;28;20583;-42
2022/01/31 00:22:08;;;;;;;7.60;3.30;;;;;;;19.50;48.09;100707.06;4947488;28;20471;-39
2022/01/31 00:24:34;;;;;;;4.00;2.97;;;;;;;19.49;47.78;100712.53;4959812;28;20495;-43
2022/01/31 00:27:01;;;;;;;4.72;2.97;;;;;;;19.47;48.13;100712.72;4966485;28;20027;-43
2022/01/31 00:29:26;;;;;;;5.28;2.90;;;;;;;19.46;47.95;100711.09;4965970;28;20498;-45
2022/01/31 00:31:52;;;;;;;7.57;2.97;;;;;;;19.45;47.85;100708.66;4968426;28;20030;-42
2022/01/31 00:34:18;;;;;;;4.70;3.13;;;;;;;19.43;47.76;100700.91;4961543;28;20114;-41
2022/01/31 00:36:43;;;;;;;6.18;3.33;;;;;;;19.44;47.63;100701.72;4957173;28;20027;-41
2022/01/31 00:39:09;;;;;;;4.88;3.30;;;;;;;19.43;47.12;100700.09;4957180;28;20058;-43
2022/01/31 00:41:34;;;;;;;4.47;3.13;;;;;;;19.41;46.77;100700.28;4959624;28;20041;-44
2022/01/31 00:44:16;;;;;;;5.13;2.92;;;;;;;19.40;46.61;100685.47;4955389;28;20522;-41
2022/01/31 00:46:49;;;;;;;4.88;2.88;;;;;;;19.37;46.37;100677.97;4935897;28;20124;-43
2022/01/31 00:52:00;;;;;;;5.35;2.90;;;;;;;19.35;46.28;100656.19;4960783;28;20765;-42
2022/01/31 00:54:25;;;;;;;6.90;2.90;;;;;;;19.37;46.74;100656.81;4961815;28;20033;-45
2022/01/31 00:56:52;;;;;;;6.07;3.22;;;;;;;19.38;46.92;100661.06;4962888;28;20031;-43
2022/01/31 00:59:18;;;;;;;5.78;3.13;;;;;;;19.39;47.07;100651.31;4964874;28;20026;-44
2022/01/31 01:01:44;;;;;;;4.85;3.40;;;;;;;19.39;47.40;100638.09;4958276;28;20039;-46
2022/01/31 01:04:10;;;;;;;6.88;3.22;;;;;;;19.40;47.32;100642.38;4958922;28;20651;-46
2022/01/31 01:06:36;;;;;;;4.80;2.60;;;;;;;19.38;47.53;100639.94;4957325;28;20089;-45
2022/01/31 01:09:01;;;;;;;6.63;2.50;;;;;;;19.38;47.43;100633.81;4961211;28;20129;-42
2022/01/31 01:11:27;;;;;;;2.78;2.20;;;;;;;19.37;47.31;100643.59;4963802;28;20093;-39
2022/01/31 01:13:52;;;;;;;3.05;2.00;;;;;;;19.34;47.23;100625.50;4962615;28;20082;-44
2022/01/31 01:16:18;;;;;;;3.45;2.10;;;;;;;19.34;47.30;100622.88;4964757;28;20113;-44
2022/01/31 01:18:43;;;;;;;3.30;2.30;;;;;;;19.31;47.39;100617.97;4963715;28;20584;-44
2022/01/31 01:21:09;;;;;;;3.25;2.15;;;;;;;19.29;47.35;100619.19;4965439;28;20041;-43
2022/01/31 01:23:34;;;;;;;4.07;2.00;;;;;;;19.27;47.24;100621.22;4961410;28;20038;-42
2022/01/31 01:26:00;;;;;;;3.78;1.80;;;;;;;19.25;47.20;100617.94;4962774;28;20030;-42
2022/01/31 01:28:26;;;;;;;2.30;1.67;;;;;;;19.22;47.04;100606.75;4964545;28;20038;-43
2022/01/31 01:30:54;;;;;;;4.35;2.28;;;;;;;19.21;46.92;100594.56;4965628;28;20042;-42
2022/01/31 01:33:22;;;;;;;3.75;2.22;;;;;;;19.19;46.90;100593.13;4939785;28;20026;-42
2022/01/31 01:35:50;;;;;;;5.00;2.85;;;;;;;19.18;46.86;100589.69;4951693;28;20513;-43
2022/01/31 01:38:17;;;;;;;3.97;1.85;;;;;;;19.17;46.74;100595.97;4947036;28;20488;-42
2022/01/31 01:40:45;;;;;;;4.43;2.40;;;;;;;19.17;46.64;100585.41;4965837;28;20129;-44
2022/01/31 01:43:12;;;;;;;3.72;2.35;;;;;;;19.17;46.66;100580.13;4967188;28;20486;-40
2022/01/31 01:45:40;;;;;;;3.13;1.90;;;;;;;19.18;46.66;100580.94;4965654;28;20414;-41
2022/01/31 01:48:07;;;;;;;2.58;1.73;;;;;;;19.19;46.69;100582.56;4965114;28;20150;-40
2022/01/31 01:50:40;;;;;;;2.38;1.33;;;;;;;19.16;46.53;100575.03;4965500;28;20027;-39
2022/01/31 01:53:06;;;;;;;4.13;1.83;;;;;;;19.18;46.55;100565.09;4960325;28;21225;-42
2022/01/31 01:55:33;;;;;;;4.38;2.20;;;;;;;19.19;46.45;100561.44;4947743;28;20520;-43
2022/01/31 01:57:58;;;;;;;3.55;2.25;;;;;;;19.18;46.69;100555.34;4946959;28;20562;-42
2022/01/31 02:00:27;;;;;;;2.78;1.60;;;;;;;19.18;46.64;100554.53;4963360;28;20034;-41
2022/01/31 02:02:56;;;;;;;3.85;2.28;;;;;;;19.19;46.40;100556.16;4948972;28;20035;-43
2022/01/31 02:05:22;;;;;;;4.60;2.65;;;;;;;19.19;46.18;100551.69;4964113;28;20031;-41
2022/01/31 02:07:48;;;;;;;3.65;2.30;;;;;;;19.20;46.27;100552.50;4965466;28;20031;-42
2022/01/31 02:12:49;;;;;;;4.80;2.78;;;;;;;19.18;46.44;100550.06;5037646;23;20071;-40
2022/01/31 02:15:15;;;;;;;4.15;1.80;;;;;;;19.17;46.31;100545.78;4965833;28;20034;-39
2022/01/31 02:17:41;;;;;;;2.65;2.22;;;;;;;19.17;46.43;100543.16;4965498;28;20038;-39
2022/01/31 02:20:09;;;;;;;3.13;2.10;;;;;;;19.16;46.34;100546.81;4967765;28;20062;-42
2022/01/31 02:22:35;;;;;;;3.78;1.88;;;;;;;19.16;46.29;100548.63;4968788;28;20043;-42
2022/01/31 02:25:02;;;;;;;4.35;2.42;;;;;;;19.15;46.50;100544.38;4967963;28;20044;-39
2022/01/31 02:27:34;;;;;;;2.83;1.55;;;;;;;19.11;46.49;100527.28;4971193;28;20033;-44
2022/01/31 02:30:00;;;;;;;3.13;1.80;;;;;;;19.09;46.50;100514.28;4970300;28;20035;-41
2022/01/31 02:32:26;;;;;;;2.17;1.48;;;;;;;19.05;46.61;100513.03;4969242;28;20034;-43
2022/01/31 02:34:52;;;;;;;2.83;1.73;;;;;;;19.04;46.61;100518.53;4969908;28;20402;-40
2022/01/31 02:37:19;;;;;;;3.15;1.40;;;;;;;19.02;46.54;100518.72;4970596;28;20445;-43
2022/01/31 02:39:46;;;;;;;2.38;1.65;;;;;;;19.01;46.50;100511.81;4968837;28;20358;-40
2022/01/31 02:42:12;;;;;;;3.15;1.48;;;;;;;18.99;46.49;100507.75;4970730;28;20485;-43
2022/01/31 02:44:40;;;;;;;3.33;1.83;;;;;;;18.99;46.37;100523.59;4951518;28;20131;-43
2022/01/31 02:47:10;;;;;;;3.30;2.17;;;;;;;18.97;46.22;100538.81;4952213;28;20406;-40
2022/01/31 02:49:45;;;;;;;3.17;1.50;;;;;;;18.97;46.36;100538.81;4952082;28;20445;-41
2022/01/31 02:52:13;;;;;;;2.65;1.38;;;;;;;18.95;46.36;100536.34;4933818;29;20468;-43
2022/01/31 02:54:38;;;;;;;4.05;1.25;;;;;;;18.93;46.51;100530.47;4960643;28;20070;-44
2022/01/31 02:57:04;;;;;;;1.90;1.55;;;;;;;18.93;46.43;100533.09;4970149;28;20058;-39
2022/01/31 02:59:31;;;;;;;2.90;1.90;;;;;;;18.93;46.32;100534.94;4969445;28;20410;-41
2022/01/31 03:01:57;;;;;;;1.95;1.23;;;;;;;18.90;46.48;100530.88;4963492;28;20105;-43
2022/01/31 03:04:23;;;;;;;1.95;1.23;;;;;;;18.90;46.42;100531.66;4950620;29;20039;-41
2022/01/31 03:06:49;;;;;;;3.53;2.00;;;;;;;18.89;46.48;100530.06;4959378;28;20069;-40
2022/01/31 03:09:17;;;;;;;2.33;1.80;;;;;;;18.89;46.43;100524.78;4968840;28;20042;-41
2022/01/31 03:11:43;;;;;;;3.45;2.00;;;;;;;18.92;46.36;100538.56;4968501;28;20046;-42
2022/01/31 03:14:10;;;;;;;2.33;1.80;;;;;;;18.93;46.37;100542.84;4968703;28;20050;-42
2022/01/31 03:16:40;;;;;;;2.28;1.30;;;;;;;18.94;46.28;100545.28;4969019;28;20066;-42
2022/01/31 03:19:06;;;;;;;2.55;1.50;;;;;;;18.93;46.19;100545.50;4970008;28;20435;-42
2022/01/31 03:21:32;;;;;;;2.88;1.90;;;;;;;18.94;46.24;100549.75;4969374;28;20038;-39
2022/01/31 03:23:57;;;;;;;2.42;1.70;;;;;;;18.95;46.18;100543.47;4969160;28;20538;-41
2022/01/31 03:26:23;;;;;;;2.22;1.70;;;;;;;18.94;46.09;100542.66;4967840;28;20057;-40
2022/01/31 03:28:49;;;;;;;3.25;2.05;;;;;;;18.94;46.01;100531.28;4968725;28;20113;-40
2022/01/31 03:31:18;;;;;;;2.15;1.48;;;;;;;18.93;46.29;100522.53;4968017;28;20837;-42
2022/01/31 03:33:45;;;;;;;2.72;1.25;;;;;;;18.92;46.07;100530.66;4966532;28;20035;-46
2022/01/31 03:36:11;;;;;;;2.28;1.48;;;;;;;18.89;46.09;100534.53;4969767;28;20474;-42
2022/01/31 03:38:40;;;;;;;1.88;1.23;;;;;;;18.84;46.33;100527.19;4967987;28;20039;-42
2022/01/31 03:41:14;;;;;;;1.88;1.10;;;;;;;18.83;46.21;100519.47;4967814;28;20096;-43
2022/01/31 03:43:40;;;;;;;2.20;1.55;;;;;;;18.81;46.19;100518.88;4967472;28;20074;-42
2022/01/31 03:46:06;;;;;;;2.03;1.27;;;;;;;18.79;46.33;100515.59;4968425;28;20058;-44
2022/01/31 03:48:32;;;;;;;1.67;1.15;;;;;;;18.79;46.27;100523.53;4968489;28;20335;-42
2022/01/31 03:51:00;;;;;;;1.75;1.20;;;;;;;18.79;46.32;100507.69;4968834;28;20085;-42
2022/01/31 03:53:25;;;;;;;1.98;0.98;;;;;;;18.80;46.16;100499.56;4969242;28;20033;-40
2022/01/31 03:55:51;;;;;;;1.40;1.10;;;;;;;18.81;46.14;100488.00;4967970;28;20129;-41
2022/01/31 03:58:16;;;;;;;1.20;0.75;;;;;;;18.82;46.21;100497.56;4969711;28;20050;-43
2022/01/31 04:00:42;;;;;;;2.15;1.17;;;;;;;18.82;46.19;100497.56;4967705;28;20034;-41
2022/01/31 04:03:08;;;;;;;2.00;1.27;;;;;;;18.81;46.18;100498.56;4968355;28;20114;-40
2022/01/31 04:05:35;;;;;;;1.73;1.10;;;;;;;18.81;46.19;100500.38;4968867;28;20046;-42
2022/01/31 04:08:01;;;;;;;2.33;1.23;;;;;;;18.81;46.31;100485.38;4967857;28;20045;-40
2022/01/31 04:10:26;;;;;;;2.42;0.98;;;;;;;18.81;46.29;100472.16;4967678;28;20418;-41
2022/01/31 04:12:52;;;;;;;1.77;0.77;;;;;;;18.81;46.27;100474.00;4968985;28;20447;-39
2022/01/31 04:15:18;;;;;;;1.65;0.80;;;;;;;18.82;46.25;100467.69;4968237;28;20022;-43
2022/01/31 04:17:44;;;;;;;2.53;1.02;;;;;;;18.81;46.27;100464.25;4968219;28;20530;-41
2022/01/31 04:20:10;;;;;;;3.17;1.90;;;;;;;18.81;46.17;100458.97;4967652;28;20046;-43
2022/01/31 04:22:49;;;;;;;4.05;1.38;;;;;;;18.81;46.24;100460.78;4967227;28;20031;-41
2022/01/31 04:25:29;;;;;;;2.97;1.60;;;;;;;18.81;46.23;100463.44;4965199;28;20031;-40
2022/01/31 04:28:02;;;;;;;2.88;1.38;;;;;;;18.80;46.28;100467.91;4964303;28;20030;-41
2022/01/31 04:30:44;;;;;;;2.53;1.60;;;;;;;18.78;46.19;100464.66;4950336;28;20078;-42
2022/01/31 04:33:10;;;;;;;2.40;1.45;;;;;;;18.80;46.08;100469.72;4964462;28;20034;-45
2022/01/31 04:35:35;;;;;;;2.10;1.45;;;;;;;18.78;46.10;100469.91;4968278;28;20511;-42
2022/01/31 04:38:01;;;;;;;2.13;1.50;;;;;;;18.78;45.96;100475.19;4966986;28;20046;-42
2022/01/31 04:40:26;;;;;;;3.38;1.60;;;;;;;18.78;45.82;100472.56;4966544;28;20023;-45
2022/01/31 04:42:52;;;;;;;2.35;1.40;;;;;;;18.77;45.99;100463.00;4968216;28;20035;-41
2022/01/31 04:45:17;;;;;;;2.22;1.67;;;;;;;18.75;46.13;100448.38;4967538;28;20442;-41
2022/01/31 04:47:43;;;;;;;1.50;1.00;;;;;;;18.70;46.07;100435.78;4967397;28;20037;-40
2022/01/31 04:50:09;;;;;;;1.58;1.15;;;;;;;18.67;46.11;100422.16;4967166;28;20042;-41
2022/01/31 04:52:34;;;;;;;1.73;0.98;;;;;;;18.65;46.02;100416.28;4967589;28;20114;-43
2022/01/31 04:55:00;;;;;;;2.33;1.10;;;;;;;18.65;46.06;100408.34;4967125;28;20027;-40
2022/01/31 04:57:25;;;;;;;2.47;1.17;;;;;;;18.61;46.07;100400.03;4967996;28;20026;-39
2022/01/31 04:59:51;;;;;;;2.55;1.27;;;;;;;18.61;46.00;100401.84;4966495;28;20039;-41
2022/01/31 05:02:17;;;;;;;1.73;1.02;;;;;;;18.59;46.04;100402.00;4967551;28;20118;-43
2022/01/31 05:04:42;;;;;;;2.22;1.08;;;;;;;18.59;46.11;100407.28;4967216;28;20118;-44
2022/01/31 05:07:08;;;;;;;1.35;1.02;;;;;;;18.59;46.01;100417.84;4968179;28;20035;-40
2022/01/31 05:09:33;;;;;;;3.67;1.15;;;;;;;18.60;46.04;100413.38;4966455;28;20027;-41
2022/01/31 05:11:59;;;;;;;2.00;1.23;;;;;;;18.62;46.01;100411.38;4967195;28;20141;-40
2022/01/31 05:14:25;;;;;;;2.10;1.40;;;;;;;18.64;45.79;100406.72;4967907;28;20034;-42
2022/01/31 05:16:50;;;;;;;2.35;1.50;;;;;;;18.66;45.79;100412.63;4967125;28;20117;-43
2022/01/31 05:19:16;;;;;;;2.05;1.40;;;;;;;18.68;45.73;100400.03;4967072;28;20038;-42
2022/01/31 05:21:41;;;;;;;2.65;1.63;;;;;;;18.69;45.77;100389.28;4966343;28;20038;-41
2022/01/31 05:24:07;;;;;;;3.15;1.42;;;;;;;18.73;45.96;100392.34;4966284;28;20049;-42
2022/01/31 05:26:33;;;;;;;2.22;1.67;;;;;;;18.76;45.91;100387.50;4966870;28;20039;-41
2022/01/31 05:28:59;;;;;;;4.13;1.80;;;;;;;18.80;45.85;100382.63;4966921;28;20047;-39
2022/01/31 05:31:25;;;;;;;2.22;1.20;;;;;;;18.84;45.89;100384.66;4967353;28;20598;-40
2022/01/31 05:33:50;;;;;;;2.45;1.17;;;;;;;18.89;45.73;100387.53;4965761;28;20035;-39
2022/01/31 05:36:15;;;;;;;3.30;1.15;;;;;;;18.92;45.61;100372.25;4966787;28;20031;-41
2022/01/31 05:38:41;;;;;;;3.50;1.45;;;;;;;18.96;45.53;100349.72;4966190;28;20034;-43
2022/01/31 05:41:11;;;;;;;1.80;1.35;;;;;;;19.02;45.38;100333.09;4966409;28;20043;-40
2022/01/31 05:43:37;;;;;;;2.95;1.80;;;;;;;19.04;45.23;100345.06;4967381;28;20029;-40
2022/01/31 05:46:03;;;;;;;1.65;1.08;;;;;;;19.10;45.24;100351.38;4964801;28;20035;-43
2022/01/31 05:48:29;;;;;;;1.98;0.75;;;;;;;19.14;45.12;100350.78;4966525;28;20344;-43
2022/01/31 05:50:54;;;;;;;3.45;1.73;;;;;;;19.17;45.17;100347.72;4967055;28;20035;-40
2022/01/31 05:53:21;;;;;;;3.28;1.42;;;;;;;19.22;45.07;100350.56;4966082;28;20081;-43
2022/01/31 05:55:47;;;;;;;2.22;1.50;;;;;;;19.25;45.07;100359.91;4948918;28;20101;-41
2022/01/31 05:58:13;;;;;;;2.05;1.30;;;;;;;19.29;44.98;100353.22;4966340;28;20038;-39
2022/01/31 06:00:38;;;;;;;2.35;1.10;;;;;;;19.32;44.94;100355.44;4965252;28;20042;-40
2022/01/31 06:03:04;;;;;;;1.70;1.08;;;;;;;19.35;44.72;100347.13;4966604;28;20039;-42
2022/01/31 06:05:29;;;;;;;1.65;0.95;;;;;;;19.40;44.65;100339.38;4966427;28;20042;-42
2022/01/31 06:07:55;;;;;;;3.13;1.00;;;;;;;19.43;44.65;100336.31;4967104;28;20066;-41
2022/01/31 06:10:24;;;;;;;2.30;1.30;;;;;;;19.47;44.56;100326.97;4964682;28;20038;-43
2022/01/31 06:12:52;;;;;;;2.03;1.13;;;;;;;19.52;44.42;100329.03;4947604;28;20379;-43
2022/01/31 06:15:18;;;;;;;3.63;1.23;;;;;;;19.57;44.49;100316.00;4949160;28;20051;-41
2022/01/31 06:17:44;;;;;;;1.92;1.10;;;;;;;19.61;44.31;100314.56;4967005;28;20030;-41
2022/01/31 06:20:10;;;;;;;1.92;0.98;;;;;;;19.64;44.20;100316.00;4965527;28;20410;-41
2022/01/31 06:22:44;;;;;;;2.47;1.33;;;;;;;19.67;44.18;100320.88;4965434;28;20394;-42
2022/01/31 06:25:11;;;;;;;2.70;1.13;;;;;;;19.70;44.16;100313.34;4966708;28;20421;-40
2022/01/31 06:27:37;;;;;;;1.90;0.93;;;;;;;19.73;44.27;100315.56;4947951;28;20534;-39
2022/01/31 06:30:02;;;;;;;2.00;1.10;;;;;;;19.78;43.94;100313.13;4966218;28;20125;-40
2022/01/31 06:32:28;;;;;;;1.52;1.13;;;;;;;19.80;44.18;100297.03;4967369;28;20458;-43
2022/01/31 06:34:54;;;;;;;1.70;1.20;;;;;;;19.83;44.14;100294.00;4965529;28;20023;-43
2022/01/31 06:37:20;;;;;;;2.53;1.00;;;;;;;19.85;43.89;100290.09;4965677;28;20074;-45
2022/01/31 06:39:45;;;;;;;2.38;0.98;;;;;;;19.87;44.00;100287.22;4965484;28;20113;-41
2022/01/31 06:42:11;;;;;;;2.75;1.00;;;;;;;19.88;44.00;100276.44;4966564;28;20478;-44
2022/01/31 06:44:37;;;;;;;2.38;0.75;;;;;;;19.91;44.02;100254.06;4966922;28;20525;-43
2022/01/31 06:47:03;;;;;;;3.38;0.90;;;;;;;19.93;43.99;100230.88;4966212;28;20109;-41
2022/01/31 06:49:28;;;;;;;2.00;0.90;;;;;;;19.96;44.02;100225.16;4966003;28;20114;-41
2022/01/31 06:51:53;;;;;;;1.63;1.00;;;;;;;20.00;43.82;100214.97;4966619;28;20046;-40
2022/01/31 06:54:19;;;;;;;1.85;1.00;;;;;;;20.02;43.81;100216.38;4966099;28;20122;-39
2022/01/31 06:56:45;;;;;;;1.48;0.90;;;;;;;20.05;43.93;100215.97;4966048;28;20061;-42
2022/01/31 06:59:10;;;;;;;2.65;0.95;;;;;;;20.07;44.07;100221.03;4964741;28;20121;-44
2022/01/31 07:01:36;;;;;;;3.17;1.08;;;;;;;20.08;44.03;100230.59;4963524;28;20035;-42
2022/01/31 07:04:01;;;;;;;2.25;1.02;;;;;;;20.09;43.82;100229.59;4969016;28;20409;-41
2022/01/31 07:06:27;;;;;;;1.63;1.02;;;;;;;20.10;43.95;100217.97;4969719;28;20451;-41
2022/01/31 07:08:53;;;;;;;1.45;0.82;;;;;;;20.10;44.02;100217.97;4968247;28;20434;-42
2022/01/31 07:11:23;;;;;;;1.15;0.85;;;;;;;20.11;43.95;100209.84;4966567;28;20081;-44
2022/01/31 07:13:50;;;;;;;6.63;1.58;;;;;;;20.12;43.89;100205.34;4966928;28;20043;-42
2022/01/31 07:16:16;;;;;;;3.22;1.10;;;;;;;20.12;44.09;100187.66;4952382;28;20486;-42
2022/01/31 07:18:43;;;;;;;1.90;1.15;;;;;;;20.12;44.07;100174.44;4967850;28;20321;-42
2022/01/31 07:21:13;;;;;;;2.22;1.23;;;;;;;20.10;43.89;100173.84;4966374;28;20050;-42
2022/01/31 07:23:52;;;;;;;3.22;1.15;;;;;;;20.09;43.67;100163.47;4966596;28;20042;-42
2022/01/31 07:26:18;;;;;;;2.10;1.02;;;;;;;20.06;43.85;100159.41;4952496;28;20041;-42
2022/01/31 07:28:43;;;;;;;5.07;1.65;;;;;;;20.04;43.83;100161.47;4970377;28;20030;-41
2022/01/31 07:31:11;;;;;;;4.18;1.40;;;;;;;20.04;44.07;100164.09;4977979;28;20229;-44
2022/01/31 07:33:37;;;;;;;4.55;1.30;;;;;;;20.03;44.14;100166.97;4952199;28;20455;-40
2022/01/31 07:36:03;;;;;;;2.33;1.25;;;;;;;20.01;44.07;100166.38;4971026;28;20037;-42
2022/01/31 07:38:28;;;;;;;1.85;0.88;;;;;;;20.01;44.11;100163.72;4970261;28;20034;-40
2022/01/31 07:40:57;;;;;;;3.45;1.33;;;;;;;20.00;44.12;100164.75;4970408;28;20497;-43
2022/01/31 07:43:23;;;;;;;1.88;1.23;;;;;;;19.98;44.03;100159.66;4967209;28;20031;-43
2022/01/31 07:45:48;;;;;;;8.07;1.30;;;;;;;19.97;43.92;100155.41;4966823;28;20113;-44
2022/01/31 07:48:14;;;;;;;2.42;1.35;;;;;;;19.96;43.98;100137.09;4979632;28;20026;-46
2022/01/31 07:50:39;;;;;;;2.70;1.40;;;;;;;19.96;44.02;100132.63;4969820;28;20033;-41
2022/01/31 07:53:05;;;;;;;6.00;2.00;;;;;;;19.94;43.67;100132.03;4969125;28;20030;-43
2022/01/31 07:55:31;;;;;;;2.85;1.40;;;;;;;19.94;43.81;100134.66;4968667;28;20477;-45
2022/01/31 07:57:56;;;;;;;5.82;1.90;;;;;;;19.95;44.06;100138.94;4974975;28;20490;-47
2022/01/31 08:00:22;;;;;;;7.63;1.73;;;;;;;20.01;44.01;100145.22;4968888;28;20229;-41
2022/01/31 08:02:48;;;;;;;7.57;1.73;;;;;;;20.05;44.38;100143.75;4977411;28;20031;-47
2022/01/31 08:05:14;;;;;;;4.57;1.33;;;;;;;20.07;44.65;100152.28;4964944;28;20125;-45
2022/01/31 08:07:39;;;;;;;3.72;2.42;;;;;;;20.09;45.07;100134.38;4984793;28;20718;-41
2022/01/31 08:10:06;;;;;;;11.50;2.22;;;;;;;20.05;45.55;100130.53;4973365;28;20026;-43
2022/01/31 08:12:35;;;;;;;3.08;1.67;;;;;;;20.00;45.07;100123.25;4967772;28;20043;-38
2022/01/31 08:15:04;;;;;;;2.78;1.48;;;;;;;19.96;44.90;100113.31;4966867;28;20023;-41
2022/01/31 08:17:30;;;;;;;4.68;1.70;;;;;;;19.95;44.80;100112.50;4934797;29;20045;-37
2022/01/31 08:19:56;;;;;;;4.82;1.50;;;;;;;19.93;44.66;100100.50;4959226;28;20031;-39
2022/01/31 08:22:21;;;;;;;3.33;1.42;;;;;;;19.93;44.56;100093.38;4967445;28;20129;-42
2022/01/31 08:24:47;;;;;;;3.35;1.60;;;;;;;19.91;44.39;100084.06;4966388;28;20049;-43
2022/01/31 08:27:12;;;;;;;3.90;1.27;;;;;;;19.92;44.51;100070.63;4968299;28;20351;-42
2022/01/31 08:29:39;;;;;;;7.95;1.45;;;;;;;19.91;44.45;100074.28;4968798;28;20441;-41
2022/01/31 08:32:14;;;;;;;2.78;1.63;;;;;;;19.91;44.39;100076.13;4967425;28;20035;-39
2022/01/31 08:37:25;;;;;;;3.45;1.20;;;;;;;19.87;44.42;100044.00;4963357;28;20049;-41
2022/01/31 08:39:51;;;;;;;2.20;1.13;;;;;;;19.86;44.42;100022.06;4967825;28;20035;-40
2022/01/31 08:42:17;;;;;;;11.82;1.95;;;;;;;19.85;44.65;100016.97;4966772;28;20044;-44
2022/01/31 08:44:42;;;;;;;6.72;1.77;;;;;;;19.85;44.68;100022.28;4948722;28;20031;-44
2022/01/31 08:47:08;;;;;;;5.90;1.58;;;;;;;19.84;44.95;100033.91;4964456;28;20070;-43
2022/01/31 08:49:36;;;;;;;4.03;1.42;;;;;;;19.82;44.75;100025.38;4942756;28;20028;-43
2022/01/31 08:52:03;;;;;;;7.10;1.30;;;;;;;19.80;44.67;100036.16;4941420;28;20149;-42
2022/01/31 08:54:29;;;;;;;2.22;1.20;;;;;;;19.79;44.80;100033.72;4966622;28;20023;-40
2022/01/31 08:56:54;;;;;;;8.68;2.70;;;;;;;19.78;44.72;100022.34;4968621;28;20049;-43
2022/01/31 08:59:23;;;;;;;2.92;1.85;;;;;;;19.77;44.85;100020.72;4967719;28;20026;-42
2022/01/31 09:01:54;;;;;;;4.38;1.67;;;;;;;19.78;45.01;100021.53;4973589;28;20041;-39
2022/01/31 09:04:34;;;;;;;3.33;1.40;;;;;;;19.77;45.28;100020.72;4973689;28;20030;-42
2022/01/31 09:07:01;;;;;;;11.38;2.05;;;;;;;19.77;45.28;100007.50;4963890;28;20140;-44
2022/01/31 09:09:27;;;;;;;4.10;1.50;;;;;;;19.78;45.34;99981.91;4965865;28;20034;-43
2022/01/31 09:11:52;;;;;;;6.47;1.58;;;;;;;19.75;45.28;99954.06;4966210;28;20792;-46
2022/01/31 09:14:18;;;;;;;6.90;2.15;;;;;;;19.74;45.35;99951.63;4951320;28;20130;-45
2022/01/31 09:16:43;;;;;;;11.80;2.38;;;;;;;19.72;44.86;99954.50;4978370;28;20029;-41
2022/01/31 09:19:09;;;;;;;3.45;1.92;;;;;;;19.70;45.00;99956.53;4967640;28;20148;-39
2022/01/31 09:21:35;;;;;;;5.80;1.58;;;;;;;19.66;45.03;99954.53;4973990;28;20058;-43
2022/01/31 09:24:01;;;;;;;10.30;2.60;;;;;;;19.63;45.12;99944.41;4950307;28;20479;-44
2022/01/31 09:26:26;;;;;;;4.97;1.75;;;;;;;19.60;44.98;99953.56;4972089;28;20026;-44
2022/01/31 09:28:53;;;;;;;5.05;2.13;;;;;;;19.59;44.84;99959.06;4974379;28;20038;-43
2022/01/31 09:31:20;;;;;;;9.02;2.28;;;;;;;19.57;44.57;99959.28;4966809;28;20077;-44
2022/01/31 09:33:47;;;;;;;5.13;2.08;;;;;;;19.55;44.32;99958.69;4959152;28;20038;-48
2022/01/31 09:36:13;;;;;;;6.60;1.80;;;;;;;19.52;44.50;99949.34;4983622;28;20088;-45
2022/01/31 09:38:40;;;;;;;6.53;1.98;;;;;;;19.51;44.17;99954.84;4967732;28;20054;-43
2022/01/31 09:41:06;;;;;;;7.70;1.88;;;;;;;19.51;44.27;99952.22;4979232;28;20401;-43
2022/01/31 09:46:48;;;;;;;5.47;1.48;;;;;;;19.44;43.99;99933.72;4965761;28;20393;-42
2022/01/31 09:49:09;;;;;;;7.32;1.80;;;;;;;19.41;43.83;99931.50;4969013;28;20050;-47
2022/01/31 09:51:35;;;;;;;5.07;2.10;;;;;;;19.41;43.74;99930.72;4967370;28;20037;-45
2022/01/31 09:54:03;;;;;;;9.13;2.70;;;;;;;19.40;43.50;99923.81;4967668;28;20037;-47
2022/01/31 09:56:33;;;;;;;3.30;1.75;;;;;;;19.38;43.53;99923.22;4982403;28;20019;-41
2022/01/31 09:59:01;;;;;;;3.63;2.08;;;;;;;19.37;43.56;99925.06;4985391;28;20038;-45
2022/01/31 10:01:35;;;;;;;2.83;1.75;;;;;;;19.35;43.39;99921.84;4985493;28;20050;-40
2022/01/31 10:04:07;;;;;;;3.10;1.80;;;;;;;19.33;43.53;99913.31;4969825;28;20030;-42
2022/01/31 10:06:36;;;;;;;4.55;2.30;;;;;;;19.32;43.63;99906.41;4982612;28;20607;-41
2022/01/31 10:09:13;;;;;;;4.97;1.88;;;;;;;19.30;43.57;99903.19;4985711;28;20038;-41
2022/01/31 10:17:39;;;;;;;5.72;2.03;;;;;;;19.26;43.60;99878.22;4990493;28;20041;-44
2022/01/31 10:20:29;;;;;;;3.10;2.20;;;;;;;19.26;43.69;99866.84;4980244;28;20048;-43
2022/01/31 10:23:16;;;;;;;7.20;2.03;;;;;;;19.26;43.67;99869.50;4978470;28;20041;-46
2022/01/31 10:25:43;;;;;;;8.20;2.63;;;;;;;19.24;43.61;99861.78;4989297;28;20038;-44
2022/01/31 10:28:18;;;;;;;5.03;1.73;;;;;;;19.23;43.98;99852.25;4990272;28;20443;-40
2022/01/31 10:30:45;;;;;;;;;;;;;;;19.16;44.50;99854.13;4984636;28;20050;-45
2022/01/31 10:33:13;;;;;;;4.95;1.85;;;;;;;19.18;44.46;99858.16;4995721;28;20392;-40
2022/01/31 10:35:40;;;;;;;5.10;1.77;;;;;;;19.22;44.33;99850.63;4983518;28;20126;-42
2022/01/31 10:38:13;;;;;;;7.50;2.55;;;;;;;19.22;44.25;99840.06;4996765;28;20405;-51
2022/01/31 10:51:58;;;;;;;9.30;1.65;;;;;;;19.17;44.01;99818.78;4986580;28;20481;-43
2022/01/31 10:57:01;;;;;;;4.93;1.70;;;;;;;19.17;43.81;99802.94;4980954;28;20034;-41
2022/01/31 10:59:31;;;;;;;6.38;2.03;;;;;;;19.15;43.96;99795.22;4980825;28;20383;-41
2022/01/31 11:01:59;;;;;;;7.63;2.40;;;;;;;19.14;44.19;99779.59;4987459;28;20120;-43
2022/01/31 11:04:30;;;;;;;8.10;2.20;;;;;;;19.11;44.37;99772.09;4985103;28;20038;-44
2022/01/31 11:07:02;;;;;;;3.08;1.50;;;;;;;19.10;44.39;99766.00;4985034;28;20117;-44
2022/01/31 11:09:30;;;;;;;5.50;2.10;;;;;;;19.10;44.55;99757.28;4985765;28;20062;-44
2022/01/31 11:11:56;;;;;;;8.57;1.95;;;;;;;19.08;44.54;99756.69;5000683;28;20038;-40
2022/01/31 11:14:22;;;;;;;4.57;1.75;;;;;;;19.09;44.56;99753.03;4986501;28;20147;-41
2022/01/31 11:16:49;;;;;;;7.45;2.20;;;;;;;19.09;44.46;99737.19;4981151;28;20040;-45
2022/01/31 11:19:22;;;;;;;4.38;2.42;;;;;;;19.08;44.12;99731.09;4982437;28;20023;-44
2022/01/31 11:21:49;;;;;;;9.45;3.17;;;;;;;19.06;44.17;99722.59;4985716;28;20034;-45
2022/01/31 11:24:20;;;;;;;6.57;2.60;;;;;;;19.06;43.88;99711.22;4966562;28;20064;-41
2022/01/31 11:26:54;;;;;;;6.47;2.72;;;;;;;19.04;44.10;99708.81;4983343;28;20042;-42
2022/01/31 11:29:20;;;;;;;9.15;2.97;;;;;;;19.04;44.05;99697.44;4983516;28;20030;-40
2022/01/31 11:31:46;;;;;;;9.85;3.50;;;;;;;19.02;44.19;99689.72;4982262;28;20038;-42
2022/01/31 11:34:12;;;;;;;8.43;2.45;;;;;;;19.03;44.22;99686.06;4983107;28;20030;-43
2022/01/31 11:36:40;;;;;;;4.95;2.08;;;;;;;19.02;44.19;99668.59;4981813;28;20025;-46
2022/01/31 11:39:13;;;;;;;5.70;2.30;;;;;;;18.99;44.14;99670.88;4978519;28;20042;-43
2022/01/31 11:42:00;;;;;;;2.65;1.60;;;;;;;18.96;44.01;99668.69;4984940;28;20030;-44
2022/01/31 11:44:31;;;;;;;4.15;2.70;;;;;;;18.95;44.45;99664.41;4987351;28;20351;-40
2022/01/31 11:47:03;;;;;;;5.07;1.95;;;;;;;18.93;44.75;99662.00;4981246;28;20072;-43
2022/01/31 11:49:47;;;;;;;5.00;2.05;;;;;;;18.92;45.02;99662.22;4985651;28;20068;-44
2022/01/31 11:52:13;;;;;;;8.02;2.53;;;;;;;18.92;44.88;99655.09;4989763;28;20762;-50
2022/01/31 11:54:51;;;;;;;4.18;1.90;;;;;;;18.88;44.92;99654.75;4986085;28;20434;-46
2022/01/31 11:57:19;;;;;;;7.22;1.83;;;;;;;18.88;44.93;99641.56;4985954;28;20447;-45
2022/01/31 11:59:53;;;;;;;4.03;1.50;;;;;;;18.87;44.83;99639.94;4993162;28;20074;-49